createdAt,value
2018-07-16T00:00:40.051Z,64.97
2018-07-16T00:04:04.926Z,65.38
2018-07-16T00:07:30.027Z,66.48
2018-07-16T00:10:54.976Z,67.53
2018-07-16T00:14:19.972Z,68.58
2018-07-16T00:17:45.117Z,68.04
2018-07-16T00:21:10.234Z,67.99
2018-07-16T00:24:35.337Z,65.90
2018-07-16T00:28:00.343Z,66.31
2018-07-16T00:31:25.379Z,67.14
2018-07-16T00:34:50.262Z,66.13
2018-07-16T00:38:15.009Z,66.09
2018-07-16T00:41:39.890Z,66.17
2018-07-16T00:45:04.873Z,65.01
2018-07-16T00:48:29.686Z,65.40
2018-07-16T00:51:54.744Z,66.83
2018-07-16T00:55:19.768Z,65.53
2018-07-16T00:58:44.469Z,65.77
2018-07-16T01:02:09.172Z,66.00
2018-07-16T01:05:33.826Z,66.14
2018-07-16T01:08:58.491Z,66.06
2018-07-16T01:12:23.191Z,66.18
2018-07-16T01:15:48.100Z,66.51
2018-07-16T01:19:12.751Z,66.33
2018-07-16T01:22:37.374Z,66.01
2018-07-16T01:26:02.219Z,65.68
2018-07-16T01:29:26.552Z,65.55
2018-07-16T01:32:51.170Z,67.04
2018-07-16T01:36:15.930Z,66.86
2018-07-16T01:39:40.559Z,67.11
2018-07-16T01:43:05.337Z,66.65
2018-07-16T01:46:30.006Z,66.93
2018-07-16T01:49:54.677Z,66.33
2018-07-16T01:53:19.361Z,66.09
2018-07-16T01:56:44.006Z,66.83
2018-07-16T02:00:08.673Z,67.87
2018-07-16T02:03:34.478Z,67.66
2018-07-16T02:06:59.196Z,67.20
2018-07-16T02:10:23.560Z,67.50
2018-07-16T02:13:48.207Z,67.50
2018-07-16T02:17:12.865Z,67.69
2018-07-16T02:20:37.667Z,68.45
2018-07-16T02:24:02.396Z,68.26
2018-07-16T02:27:27.152Z,67.25
2018-07-16T02:30:51.826Z,68.48
2018-07-16T02:34:16.576Z,68.49
2018-07-16T02:37:41.361Z,66.91
2018-07-16T02:41:06.056Z,67.55
2018-07-16T02:44:30.744Z,69.48
2018-07-16T02:47:56.017Z,68.64
2018-07-16T02:51:20.708Z,70.02
2018-07-16T02:54:45.990Z,70.61
2018-07-16T02:58:11.268Z,69.73
2018-07-16T03:01:35.913Z,69.33
2018-07-16T03:05:00.574Z,69.32
2018-07-16T03:08:25.220Z,69.79
2018-07-16T03:11:50.600Z,69.61
2018-07-16T03:15:15.640Z,69.09
2018-07-16T03:18:40.281Z,68.66
2018-07-16T03:22:04.975Z,69.60
2018-07-16T03:25:29.642Z,68.89
2018-07-16T03:28:54.365Z,68.27
2018-07-16T03:32:19.133Z,68.66
2018-07-16T03:35:43.781Z,69.47
2018-07-16T03:39:09.925Z,68.72
2018-07-16T03:42:34.669Z,68.91
2018-07-16T03:45:59.379Z,69.24
2018-07-16T03:49:24.008Z,70.41
2018-07-16T03:52:48.687Z,70.29
2018-07-16T03:56:13.377Z,70.62
2018-07-16T03:59:38.098Z,70.17
2018-07-16T04:03:03.037Z,71.74
2018-07-16T04:06:27.783Z,70.78
2018-07-16T04:09:52.605Z,70.90
2018-07-16T04:13:17.367Z,72.64
2018-07-16T04:16:42.051Z,70.76
2018-07-16T04:20:06.893Z,70.75
2018-07-16T04:23:31.553Z,69.80
2018-07-16T04:26:56.224Z,71.11
2018-07-16T04:30:20.901Z,72.11
2018-07-16T04:33:45.570Z,72.78
2018-07-16T04:37:10.297Z,73.80
2018-07-16T04:40:34.982Z,72.87
2018-07-16T04:43:59.723Z,73.43
2018-07-16T04:47:24.467Z,72.68
2018-07-16T04:50:49.181Z,72.54
2018-07-16T04:54:13.902Z,73.48
2018-07-16T04:57:38.645Z,72.30
2018-07-16T05:01:03.420Z,73.28
2018-07-16T05:04:28.347Z,71.63
2018-07-16T05:07:52.755Z,71.29
2018-07-16T05:11:17.561Z,71.59
2018-07-16T05:14:42.227Z,70.18
2018-07-16T05:18:06.980Z,70.70
2018-07-16T05:21:31.639Z,70.62
2018-07-16T05:24:56.305Z,70.73
2018-07-16T05:28:21.051Z,70.83
2018-07-16T05:31:45.819Z,71.14
2018-07-16T05:35:10.539Z,70.92
2018-07-16T05:38:35.231Z,70.51
2018-07-16T05:41:59.975Z,70.37
2018-07-16T05:45:24.639Z,70.52
2018-07-16T05:48:49.358Z,70.51
2018-07-16T05:52:14.045Z,69.86
2018-07-16T05:55:38.669Z,69.24
2018-07-16T05:59:03.323Z,69.47
2018-07-16T06:02:28.059Z,68.97
2018-07-16T06:05:52.689Z,68.77
2018-07-16T06:09:17.362Z,67.84
2018-07-16T06:12:42.089Z,68.82
2018-07-16T06:16:06.912Z,67.90
2018-07-16T06:19:31.633Z,68.41
2018-07-16T06:22:56.258Z,67.26
2018-07-16T06:26:20.933Z,67.37
2018-07-16T06:29:45.689Z,65.60
2018-07-16T06:33:10.426Z,66.14
2018-07-16T06:36:35.100Z,65.70
2018-07-16T06:39:59.937Z,66.18
2018-07-16T06:43:24.494Z,66.28
2018-07-16T06:46:49.160Z,66.00
2018-07-16T06:50:13.808Z,65.66
2018-07-16T06:53:38.512Z,64.83
2018-07-16T06:57:03.187Z,64.85
2018-07-16T07:00:28.038Z,63.75
2018-07-16T07:03:52.730Z,62.87
2018-07-16T07:07:17.417Z,63.59
2018-07-16T07:10:42.116Z,61.71
2018-07-16T07:14:06.866Z,62.28
2018-07-16T07:17:31.565Z,62.61
2018-07-16T07:20:56.273Z,63.74
2018-07-16T07:24:21.025Z,63.31
2018-07-16T07:27:45.435Z,61.90
2018-07-16T07:31:10.344Z,62.35
2018-07-16T07:34:34.992Z,61.71
2018-07-16T07:37:59.682Z,59.78
2018-07-16T07:41:24.334Z,59.94
2018-07-16T07:44:48.969Z,58.02
2018-07-16T07:48:13.613Z,57.71
2018-07-16T07:51:38.286Z,57.94
2018-07-16T07:55:03.204Z,58.48
2018-07-16T07:58:27.562Z,57.00
2018-07-16T08:01:52.251Z,57.53
2018-07-16T08:05:16.913Z,57.08
2018-07-16T08:08:41.900Z,56.88
2018-07-16T08:12:07.253Z,56.11
2018-07-16T08:15:31.916Z,54.91
2018-07-16T08:18:56.539Z,55.10
2018-07-16T08:22:21.283Z,55.95
2018-07-16T08:25:45.976Z,54.60
2018-07-16T08:29:10.731Z,52.83
2018-07-16T08:32:35.368Z,52.23
2018-07-16T08:35:59.968Z,51.62
2018-07-16T08:39:24.765Z,52.66
2018-07-16T08:42:49.466Z,50.39
2018-07-16T08:46:14.158Z,50.42
2018-07-16T08:49:38.770Z,52.10
2018-07-16T08:53:03.432Z,51.78
2018-07-16T08:56:28.112Z,50.93
2018-07-16T08:59:52.795Z,50.47
2018-07-16T09:03:17.113Z,49.86
2018-07-16T09:06:41.993Z,49.35
2018-07-16T09:10:08.812Z,49.53
2018-07-16T09:13:33.378Z,48.68
2018-07-16T09:16:58.072Z,48.32
2018-07-16T09:20:22.874Z,47.76
2018-07-16T09:23:47.626Z,46.92
2018-07-16T09:27:12.103Z,46.80
2018-07-16T09:30:39.224Z,46.01
2018-07-16T09:34:04.016Z,45.57
2018-07-16T09:37:28.369Z,45.06
2018-07-16T09:40:52.811Z,44.92
2018-07-16T09:44:17.535Z,43.23
2018-07-16T09:47:42.211Z,41.73
2018-07-16T09:51:08.088Z,41.94
2018-07-16T09:54:32.969Z,41.76
2018-07-16T09:57:57.942Z,40.13
2018-07-16T10:01:28.924Z,39.40
2018-07-16T10:04:53.901Z,39.25
2018-07-16T10:08:19.078Z,38.22
2018-07-16T10:11:43.425Z,37.64
2018-07-16T10:15:08.330Z,37.81
2018-07-16T10:18:33.226Z,37.80
2018-07-16T10:21:57.839Z,36.82
2018-07-16T10:25:22.640Z,34.17
2018-07-16T10:28:47.504Z,34.29
2018-07-16T10:32:12.176Z,35.18
2018-07-16T10:35:38.692Z,34.41
2018-07-16T10:39:05.462Z,32.38
2018-07-16T10:42:30.724Z,33.06
2018-07-16T10:45:55.762Z,30.51
2018-07-16T10:49:20.228Z,32.27
2018-07-16T10:52:44.887Z,31.11
2018-07-16T10:56:09.585Z,29.86
2018-07-16T10:59:36.150Z,31.05
2018-07-16T11:03:00.840Z,30.71
2018-07-16T11:06:25.677Z,30.44
2018-07-16T11:09:50.514Z,29.95
2018-07-16T11:13:15.179Z,29.06
2018-07-16T11:16:39.808Z,29.36
2018-07-16T11:20:04.120Z,29.29
2018-07-16T11:23:28.371Z,29.36
2018-07-16T11:26:53.048Z,28.69
2018-07-16T11:30:17.731Z,31.79
2018-07-16T11:33:42.433Z,32.74
2018-07-16T11:37:07.534Z,32.67
2018-07-16T11:40:37.125Z,32.58
2018-07-16T11:44:02.812Z,32.28
2018-07-16T11:47:30.914Z,32.13
2018-07-16T11:50:56.159Z,33.23
2018-07-16T11:54:21.235Z,31.51
2018-07-16T11:57:46.071Z,30.79
2018-07-16T12:01:10.827Z,29.66
2018-07-16T12:04:35.723Z,30.54
2018-07-16T12:08:02.088Z,30.90
2018-07-16T12:11:28.468Z,31.74
2018-07-16T12:14:53.606Z,31.11
2018-07-16T12:18:19.077Z,29.46
2018-07-16T12:21:44.903Z,30.46
2018-07-16T12:25:10.723Z,30.46
2018-07-16T12:28:35.654Z,30.51
2018-07-16T12:32:00.850Z,29.31
2018-07-16T12:35:25.868Z,29.57
2018-07-16T12:38:50.607Z,29.12
2018-07-16T12:42:15.342Z,27.75
2018-07-16T12:45:40.661Z,27.85
2018-07-16T12:49:05.104Z,27.75
2018-07-16T12:52:29.807Z,26.06
2018-07-16T12:55:54.508Z,28.41
2018-07-16T12:59:19.166Z,30.47
2018-07-16T13:02:43.995Z,27.73
2018-07-16T13:06:08.801Z,27.99
2018-07-16T13:09:33.448Z,28.71
2018-07-16T13:12:58.500Z,28.39
2018-07-16T13:16:22.796Z,27.42
2018-07-16T13:19:47.805Z,28.39
2018-07-16T13:23:12.944Z,27.69
2018-07-16T13:26:38.969Z,29.48
2018-07-16T13:30:03.667Z,30.97
2018-07-16T13:33:28.390Z,30.54
2018-07-16T13:36:53.125Z,28.65
2018-07-16T13:40:17.862Z,27.65
2018-07-16T13:43:42.519Z,28.48
2018-07-16T13:47:07.337Z,27.45
2018-07-16T13:50:32.135Z,26.51
2018-07-16T13:53:56.798Z,26.47
2018-07-16T13:57:21.486Z,27.15
2018-07-16T14:00:46.846Z,26.62
2018-07-16T14:04:11.544Z,25.55
2018-07-16T14:07:37.206Z,25.61
2018-07-16T14:11:02.807Z,25.80
2018-07-16T14:14:27.621Z,27.25
2018-07-16T14:17:52.356Z,26.76
2018-07-16T14:21:17.088Z,26.66
2018-07-16T14:24:41.784Z,25.94
2018-07-16T14:28:06.621Z,26.31
2018-07-16T14:31:30.952Z,25.42
2018-07-16T14:34:55.681Z,25.86
2018-07-16T14:38:20.529Z,28.07
2018-07-16T14:41:45.194Z,26.66
2018-07-16T14:45:09.932Z,26.61
2018-07-16T14:48:34.720Z,25.74
2018-07-16T14:51:59.373Z,26.72
2018-07-16T14:55:24.133Z,25.78
2018-07-16T14:58:48.754Z,25.35
2018-07-16T15:02:13.092Z,25.14
2018-07-16T15:05:37.983Z,25.38
2018-07-16T15:09:02.775Z,24.39
2018-07-16T15:12:27.486Z,23.68
2018-07-16T15:15:52.336Z,24.14
2018-07-16T15:19:17.133Z,22.69
2018-07-16T15:22:42.005Z,24.20
2018-07-16T15:26:07.584Z,22.40
2018-07-16T15:29:32.303Z,22.24
2018-07-16T15:32:56.838Z,23.52
2018-07-16T15:36:21.236Z,23.36
2018-07-16T15:39:45.979Z,20.99
2018-07-16T15:43:10.798Z,21.51
2018-07-16T15:46:35.479Z,21.72
2018-07-16T15:49:59.853Z,22.09
2018-07-16T15:53:24.476Z,22.15
2018-07-16T15:56:49.258Z,21.67
2018-07-16T16:00:13.932Z,22.06
2018-07-16T16:03:38.603Z,22.62
2018-07-16T16:07:03.787Z,22.87
2018-07-16T16:10:28.719Z,22.40
2018-07-16T16:13:53.781Z,23.62
2018-07-16T16:17:18.608Z,25.95
2018-07-16T16:20:43.447Z,26.55
2018-07-16T16:24:08.263Z,25.80
2018-07-16T16:27:33.126Z,25.76
2018-07-16T16:30:58.095Z,25.12
2018-07-16T16:34:23.124Z,25.19
2018-07-16T16:37:47.937Z,24.17
2018-07-16T16:41:12.883Z,24.61
2018-07-16T16:44:37.548Z,24.56
2018-07-16T16:48:02.424Z,24.66
2018-07-16T16:51:27.490Z,24.70
2018-07-16T16:54:52.709Z,23.39
2018-07-16T16:58:17.618Z,24.02
2018-07-16T17:01:42.479Z,23.88
2018-07-16T17:05:07.300Z,24.29
2018-07-16T17:08:32.022Z,23.94
2018-07-16T17:11:56.783Z,24.31
2018-07-16T17:15:21.373Z,24.08
2018-07-16T17:18:46.011Z,25.13
2018-07-16T17:22:10.349Z,24.19
2018-07-16T17:25:34.996Z,24.01
2018-07-16T17:28:59.690Z,24.13
2018-07-16T17:32:24.511Z,24.19
2018-07-16T17:35:49.276Z,24.10
2018-07-16T17:39:14.671Z,24.99
2018-07-16T17:42:39.525Z,24.97
2018-07-16T17:46:04.242Z,25.90
2018-07-16T17:49:28.987Z,26.08
2018-07-16T17:52:53.700Z,26.71
2018-07-16T17:56:18.700Z,27.19
2018-07-16T17:59:43.420Z,27.84
2018-07-16T18:03:08.480Z,27.84
2018-07-16T18:06:32.881Z,29.01
2018-07-16T18:09:57.569Z,29.40
2018-07-16T18:13:22.366Z,30.11
2018-07-16T18:16:46.970Z,29.30
2018-07-16T18:20:11.822Z,29.94
2018-07-16T18:23:36.525Z,29.82
2018-07-16T18:27:02.158Z,30.75
2018-07-16T18:30:27.084Z,30.11
2018-07-16T18:33:51.428Z,30.72
2018-07-16T18:37:16.173Z,31.14
2018-07-16T18:40:40.633Z,31.99
2018-07-16T18:44:05.490Z,31.34
2018-07-16T18:47:30.429Z,33.20
2018-07-16T18:50:55.162Z,33.82
2018-07-16T18:54:20.052Z,34.05
2018-07-16T18:57:44.861Z,33.76
2018-07-16T19:01:09.620Z,34.29
2018-07-16T19:04:34.052Z,34.41
2018-07-16T19:07:58.860Z,35.07
2018-07-16T19:11:23.613Z,35.72
2018-07-16T19:14:48.623Z,36.49
2018-07-16T19:18:13.331Z,35.84
2018-07-16T19:21:38.065Z,36.49
2018-07-16T19:25:02.958Z,36.31
2018-07-16T19:28:27.507Z,35.91
2018-07-16T19:31:52.293Z,35.72
2018-07-16T19:35:17.146Z,37.72
2018-07-16T19:38:42.024Z,37.21
2018-07-16T19:42:07.042Z,36.87
2018-07-16T19:45:31.849Z,37.43
2018-07-16T19:48:56.191Z,39.62
2018-07-16T19:52:20.150Z,42.43
2018-07-16T19:55:44.587Z,44.38
2018-07-16T19:59:08.942Z,44.21
2018-07-16T20:02:33.231Z,44.48
2018-07-16T20:05:57.400Z,45.30
2018-07-16T20:09:21.762Z,46.07
2018-07-16T20:12:45.960Z,48.35
2018-07-16T20:16:10.355Z,52.60
2018-07-16T20:19:36.346Z,57.58
2018-07-16T20:23:01.358Z,69.61
2018-07-16T20:26:25.852Z,74.05
2018-07-16T20:29:49.739Z,74.59
2018-07-16T20:33:14.436Z,73.85
2018-07-16T20:36:39.139Z,78.17
2018-07-16T20:40:03.865Z,76.08
2018-07-16T20:43:28.557Z,76.22
2018-07-16T20:46:53.437Z,69.08
2018-07-16T20:50:18.119Z,67.82
2018-07-16T20:53:42.753Z,69.06
2018-07-16T20:57:07.300Z,73.03
2018-07-16T21:00:31.973Z,75.07
2018-07-16T21:03:56.652Z,82.92
2018-07-16T21:07:21.467Z,76.42
2018-07-16T21:10:46.625Z,75.64
2018-07-16T21:14:11.506Z,81.11
2018-07-16T21:17:36.191Z,80.13
2018-07-16T21:21:00.824Z,80.22
2018-07-16T21:24:25.157Z,80.40
2018-07-16T21:27:49.924Z,79.95
2018-07-16T21:31:14.747Z,80.27
2018-07-16T21:34:39.511Z,79.81
2018-07-16T21:38:04.206Z,78.31
2018-07-16T21:41:28.880Z,79.31
2018-07-16T21:44:53.505Z,81.84
2018-07-16T21:48:18.157Z,80.21
2018-07-16T21:51:42.792Z,78.44
2018-07-16T21:55:07.478Z,77.22
2018-07-16T21:58:32.168Z,78.98
2018-07-16T22:01:56.908Z,79.30
2018-07-16T22:05:21.632Z,77.17
2018-07-16T22:08:46.311Z,78.89
2018-07-16T22:12:11.088Z,80.50
2018-07-16T22:15:35.924Z,80.25
2018-07-16T22:19:00.654Z,80.64
2018-07-16T22:22:25.268Z,80.43
2018-07-16T22:25:49.956Z,79.93
2018-07-16T22:29:14.639Z,79.86
2018-07-16T22:32:39.310Z,80.15
2018-07-16T22:36:03.653Z,81.16
2018-07-16T22:39:28.285Z,84.59
2018-07-16T22:42:52.945Z,81.35
2018-07-16T22:46:17.662Z,80.95
2018-07-16T22:49:41.974Z,82.09
2018-07-16T22:53:06.646Z,81.29
2018-07-16T22:56:31.326Z,82.96
2018-07-16T22:59:56.026Z,82.09
2018-07-16T23:03:20.644Z,83.62
2018-07-16T23:06:45.364Z,84.75
2018-07-16T23:10:10.010Z,82.17
2018-07-16T23:13:34.648Z,80.02
2018-07-16T23:16:59.287Z,81.62
2018-07-16T23:20:23.975Z,80.24
2018-07-16T23:23:48.627Z,81.80
2018-07-16T23:27:13.270Z,82.89
2018-07-16T23:30:37.931Z,82.62
2018-07-16T23:34:02.565Z,84.41
2018-07-16T23:37:27.176Z,84.42
2018-07-16T23:40:51.806Z,84.41
2018-07-16T23:44:16.436Z,83.43
2018-07-16T23:47:41.055Z,83.69
2018-07-16T23:51:05.477Z,83.24
2018-07-16T23:54:30.990Z,82.77
2018-07-16T23:57:55.708Z,83.77
